createdAt,value
2023-01-12T00:01:25.755Z,101126.96
2023-01-12T00:04:28.418Z,101121.43
2023-01-12T00:07:29.437Z,101125.11
2023-01-12T00:10:30.696Z,101123.91
2023-01-12T00:13:31.788Z,101131.48
2023-01-12T00:16:48.514Z,101134.64
2023-01-12T00:19:50.463Z,101139.30
2023-01-12T00:22:51.515Z,101138.62
2023-01-12T00:25:52.806Z,101144.67
2023-01-12T00:28:53.469Z,101154.32
2023-01-12T00:31:55.903Z,101144.34
2023-01-12T00:34:56.680Z,101146.20
2023-01-12T00:37:57.461Z,101140.51
2023-01-12T00:40:58.498Z,101144.16
2023-01-12T00:44:19.452Z,101147.63
2023-01-12T00:47:20.818Z,101150.05
2023-01-12T00:50:21.512Z,101149.40
2023-01-12T00:53:23.514Z,101149.33
2023-01-12T00:56:24.544Z,101146.65
2023-01-12T00:59:25.513Z,101141.85
2023-01-12T01:02:28.850Z,101142.23
2023-01-12T01:05:29.546Z,101137.71
2023-01-12T01:08:30.528Z,101137.17
2023-01-12T01:11:31.525Z,101138.20
2023-01-12T01:14:32.804Z,101138.42
2023-01-12T01:17:35.530Z,101138.36
2023-01-12T01:20:42.580Z,101142.54
2023-01-12T01:23:43.747Z,101148.48
2023-01-12T01:26:44.560Z,101154.99
2023-01-12T01:29:45.563Z,101154.46
2023-01-12T01:32:46.604Z,101160.52
2023-01-12T01:35:47.576Z,101167.59
2023-01-12T01:38:48.595Z,101165.86
2023-01-12T01:41:49.569Z,101162.75
2023-01-12T01:45:02.595Z,101153.36
2023-01-12T01:48:13.590Z,101161.48
2023-01-12T01:51:17.582Z,101163.34
2023-01-12T01:54:19.584Z,101166.63
2023-01-12T01:57:20.704Z,101168.57
2023-01-12T02:00:22.644Z,101170.89
2023-01-12T02:03:23.953Z,101174.67
2023-01-12T02:06:24.608Z,101174.81
2023-01-12T02:09:37.635Z,101173.17
2023-01-12T02:12:57.714Z,101173.17
2023-01-12T02:16:42.889Z,101183.30
2023-01-12T02:20:02.669Z,101177.57
2023-01-12T02:23:35.664Z,101175.25
2023-01-12T02:27:04.732Z,101176.35
2023-01-12T02:30:41.661Z,101173.35
2023-01-12T02:34:03.105Z,101165.88
2023-01-12T02:37:14.872Z,101161.06
2023-01-12T02:40:34.653Z,101163.18
2023-01-12T02:43:46.062Z,101159.08
2023-01-12T02:46:46.711Z,101158.10
2023-01-12T02:49:51.704Z,101162.45
2023-01-12T02:52:56.370Z,101159.67
2023-01-12T02:56:04.972Z,101166.10
2023-01-12T02:59:12.427Z,101163.30
2023-01-12T03:02:28.782Z,101169.16
2023-01-12T03:05:29.749Z,101153.44
2023-01-12T03:08:29.380Z,101146.46
2023-01-12T03:11:35.707Z,101150.02
2023-01-12T03:14:37.721Z,101146.79
2023-01-12T03:17:44.729Z,101153.25
2023-01-12T03:20:47.923Z,101139.71
2023-01-12T03:24:20.793Z,101141.99
2023-01-12T03:27:35.779Z,101134.85
2023-01-12T03:30:39.774Z,101130.39
2023-01-12T03:33:41.084Z,101119.77
2023-01-12T03:36:56.773Z,101122.41
2023-01-12T03:40:04.792Z,101112.89
2023-01-12T03:43:11.812Z,101115.56
2023-01-12T03:46:40.818Z,101110.04
2023-01-12T03:50:05.793Z,101101.79
2023-01-12T03:53:07.800Z,101102.00
2023-01-12T03:56:16.815Z,101097.04
2023-01-12T03:59:17.794Z,101094.41
2023-01-12T04:02:18.825Z,101101.29
2023-01-12T04:05:21.885Z,101091.91
2023-01-12T04:08:23.854Z,101087.11
2023-01-12T04:11:39.671Z,101082.84
2023-01-12T04:14:40.785Z,101074.95
2023-01-12T04:17:41.912Z,101077.04
2023-01-12T04:20:45.137Z,101079.74
2023-01-12T04:23:46.798Z,101080.14
2023-01-12T04:26:50.005Z,101077.11
2023-01-12T04:29:50.867Z,101075.88
2023-01-12T04:32:51.876Z,101067.50
2023-01-12T04:35:53.849Z,101063.27
2023-01-12T04:38:54.873Z,101067.05
2023-01-12T04:41:55.962Z,101067.91
2023-01-12T04:44:57.876Z,101061.63
2023-01-12T04:47:58.908Z,101058.73
2023-01-12T04:50:59.899Z,101056.80
2023-01-12T04:54:01.326Z,101049.70
2023-01-12T04:57:03.099Z,101046.39
2023-01-12T05:00:03.888Z,101044.58
2023-01-12T05:03:09.938Z,101047.19
2023-01-12T05:06:15.172Z,101053.61
2023-01-12T05:09:35.142Z,101052.04
2023-01-12T05:12:35.958Z,101053.30
2023-01-12T05:15:37.936Z,101060.28
2023-01-12T05:18:39.989Z,101061.23
2023-01-12T05:21:43.021Z,101057.98
2023-01-12T05:24:44.916Z,101054.55
2023-01-12T05:27:45.938Z,101051.17
2023-01-12T05:30:41.130Z,101047.85
2023-01-12T05:33:41.972Z,101050.85
2023-01-12T05:36:51.183Z,101048.19
2023-01-12T05:39:52.117Z,101045.84
2023-01-12T05:43:10.973Z,101050.21
2023-01-12T05:46:17.037Z,101042.27
2023-01-12T05:49:18.143Z,101048.70
2023-01-12T05:52:18.966Z,101045.02
2023-01-12T05:55:20.090Z,101049.86
2023-01-12T05:58:21.009Z,101057.10
2023-01-12T06:01:24.294Z,101063.53
2023-01-12T06:04:26.360Z,101061.82
2023-01-12T06:07:28.026Z,101059.19
2023-01-12T06:10:30.212Z,101060.59
2023-01-12T06:13:50.029Z,101063.25
2023-01-12T06:16:53.421Z,101052.88
2023-01-12T06:19:57.424Z,101052.98
2023-01-12T06:22:58.057Z,101044.29
2023-01-12T06:25:59.076Z,101042.53
2023-01-12T06:29:00.040Z,101039.41
2023-01-12T06:32:03.328Z,101043.20
2023-01-12T06:35:17.949Z,101040.92
2023-01-12T06:38:18.857Z,101042.45
2023-01-12T06:41:45.790Z,101048.70
2023-01-12T06:44:50.196Z,101047.66
2023-01-12T06:47:59.113Z,101044.48
2023-01-12T06:51:04.100Z,101037.93
2023-01-12T06:54:05.124Z,101039.69
2023-01-12T06:57:07.500Z,101036.42
2023-01-12T07:00:08.337Z,101033.62
2023-01-12T07:03:10.147Z,101033.36
2023-01-12T07:06:14.105Z,101031.44
2023-01-12T07:09:15.108Z,101036.65
2023-01-12T07:12:18.287Z,101041.70
2023-01-12T07:15:19.144Z,101048.74
2023-01-12T07:18:20.138Z,101051.69
2023-01-12T07:21:23.117Z,101048.15
2023-01-12T07:24:24.202Z,101050.47
2023-01-12T07:27:25.181Z,101047.14
2023-01-12T07:30:27.156Z,101040.30
2023-01-12T07:33:38.233Z,101039.30
2023-01-12T07:36:39.230Z,101037.16
2023-01-12T07:39:41.167Z,101025.91
2023-01-12T07:42:47.135Z,101020.31
2023-01-12T07:45:48.174Z,101025.26
2023-01-12T07:48:49.139Z,101031.86
2023-01-12T07:51:50.902Z,101034.81
2023-01-12T07:54:52.221Z,101035.56
2023-01-12T07:57:53.294Z,101038.91
2023-01-12T08:00:56.271Z,101042.24
2023-01-12T08:03:58.201Z,101032.11
2023-01-12T08:06:59.308Z,101029.70
2023-01-12T08:10:04.239Z,101030.73
2023-01-12T08:13:05.212Z,101033.83
2023-01-12T08:16:11.250Z,101035.94
2023-01-12T08:19:20.666Z,101036.52
2023-01-12T08:22:23.250Z,101033.52
2023-01-12T08:25:37.307Z,101030.31
2023-01-12T08:28:41.280Z,101032.57
2023-01-12T08:31:42.310Z,101028.50
2023-01-12T08:34:43.218Z,101030.85
2023-01-12T08:37:44.256Z,101022.83
2023-01-12T08:41:03.260Z,101020.34
2023-01-12T08:44:10.296Z,101010.89
2023-01-12T08:47:11.531Z,101012.50
2023-01-12T08:50:14.269Z,101015.08
2023-01-12T08:53:15.254Z,101003.02
2023-01-12T08:56:18.344Z,101000.25
2023-01-12T08:59:20.316Z,100999.33
2023-01-12T09:02:24.595Z,100984.66
2023-01-12T09:05:25.311Z,100995.09
2023-01-12T09:08:26.316Z,100990.46
2023-01-12T09:11:28.297Z,100988.37
2023-01-12T09:14:29.419Z,100999.23
2023-01-12T09:17:30.302Z,101002.48
2023-01-12T09:20:32.722Z,100995.70
2023-01-12T09:23:34.846Z,100997.44
2023-01-12T09:26:41.957Z,100995.33
2023-01-12T09:29:42.362Z,100996.32
2023-01-12T09:32:43.348Z,101003.38
2023-01-12T09:35:44.440Z,100997.95
2023-01-12T09:38:45.608Z,101005.83
2023-01-12T09:42:09.417Z,100997.80
2023-01-12T09:45:29.358Z,101003.42
2023-01-12T09:48:32.380Z,100999.86
2023-01-12T09:51:43.885Z,100999.25
2023-01-12T09:54:38.603Z,101004.59
2023-01-12T09:57:56.561Z,101008.61
2023-01-12T10:00:44.054Z,101000.02
2023-01-12T10:03:46.401Z,101005.71
2023-01-12T10:06:49.764Z,101011.33
2023-01-12T10:09:50.438Z,101005.73
2023-01-12T10:12:52.421Z,101003.21
2023-01-12T13:31:58.780Z,100900.39
2023-01-12T13:35:00.896Z,100900.73
2023-01-12T13:38:06.145Z,100906.41
2023-01-12T13:41:06.828Z,100903.02
2023-01-12T13:44:08.826Z,100906.35
2023-01-12T13:47:15.879Z,100915.02
2023-01-12T13:50:16.928Z,100915.98
2023-01-12T13:53:18.814Z,100917.90
2023-01-12T13:56:21.873Z,100917.41
2023-01-12T13:59:31.919Z,100915.77
2023-01-12T14:02:32.940Z,100917.63
2023-01-12T14:05:48.900Z,100916.54
2023-01-12T14:09:09.913Z,100920.70
2023-01-12T14:12:15.064Z,100923.74
2023-01-12T14:15:39.863Z,100921.11
2023-01-12T14:18:42.889Z,100924.56
2023-01-12T14:21:44.093Z,100921.77
2023-01-12T14:24:44.908Z,100923.02
2023-01-12T14:27:45.947Z,100911.90
2023-01-12T14:30:46.878Z,100910.85
2023-01-12T14:33:50.945Z,100911.44
2023-01-12T14:37:03.904Z,100912.30
2023-01-12T14:40:06.952Z,100913.45
2023-01-12T14:43:27.147Z,100917.61
2023-01-12T14:46:54.024Z,100923.89
2023-01-12T14:49:54.908Z,100927.15
2023-01-12T14:53:00.158Z,100925.02
2023-01-12T14:56:00.921Z,100934.31
2023-01-12T14:59:01.990Z,100931.52
2023-01-12T15:02:04.953Z,100926.27
2023-01-12T15:05:12.272Z,100925.77
2023-01-12T15:08:17.941Z,100933.83
2023-01-12T15:11:22.001Z,100934.19
2023-01-12T15:14:35.545Z,100938.56
2023-01-12T15:17:53.990Z,100947.61
2023-01-12T15:21:15.097Z,100938.07
2023-01-12T15:24:35.102Z,100938.19
2023-01-12T15:27:37.059Z,100931.36
2023-01-12T15:30:38.075Z,100936.24
2023-01-12T15:33:39.046Z,100936.48
2023-01-12T15:36:41.208Z,100940.02
2023-01-12T15:39:42.218Z,100946.58
2023-01-12T15:42:43.109Z,100945.63
2023-01-12T15:46:02.103Z,100944.56
2023-01-12T15:49:05.132Z,100936.73
2023-01-12T15:52:07.048Z,100935.42
2023-01-12T15:55:10.184Z,100930.08
2023-01-12T15:58:11.081Z,100936.47
2023-01-12T16:01:18.474Z,100932.42
2023-01-12T16:04:45.539Z,100927.35
2023-01-12T16:07:39.235Z,100926.30
2023-01-12T16:10:27.059Z,100929.99
2023-01-12T16:13:28.115Z,100922.41
2023-01-12T16:16:30.220Z,100921.95
2023-01-12T16:19:37.629Z,100924.77
2023-01-12T16:22:40.114Z,100925.26
2023-01-12T16:25:43.454Z,100918.05
2023-01-12T16:28:46.093Z,100920.89
2023-01-12T16:31:48.157Z,100918.88
2023-01-12T16:34:50.137Z,100918.95
2023-01-12T16:37:51.075Z,100908.69
2023-01-12T16:41:00.620Z,100906.91
2023-01-12T16:44:02.171Z,100906.34
2023-01-12T16:47:03.123Z,100901.38
2023-01-12T16:50:05.129Z,100903.00
2023-01-12T16:53:06.131Z,100896.90
2023-01-12T16:56:08.183Z,100890.44
2023-01-12T16:59:09.203Z,100892.27
2023-01-12T17:02:14.582Z,100888.74
2023-01-12T17:05:17.162Z,100891.30
2023-01-12T17:08:18.197Z,100893.27
2023-01-12T17:11:26.200Z,100894.84
2023-01-12T17:14:31.235Z,100892.27
2023-01-12T17:17:40.179Z,100881.67
2023-01-12T17:20:41.212Z,100889.00
2023-01-12T17:23:42.185Z,100884.90
2023-01-12T17:26:45.428Z,100882.51
2023-01-12T17:29:48.470Z,100882.73
2023-01-12T17:32:49.232Z,100890.29
2023-01-12T17:35:51.277Z,100888.05
2023-01-12T17:38:52.200Z,100889.90
2023-01-12T17:42:11.764Z,100889.01
2023-01-12T17:45:07.369Z,100886.55
2023-01-12T17:48:10.876Z,100877.05
2023-01-12T17:51:11.253Z,100875.95
2023-01-12T17:54:13.241Z,100877.41
2023-01-12T17:57:15.191Z,100877.94
2023-01-12T18:00:22.456Z,100881.94
2023-01-12T18:03:23.857Z,100883.39
2023-01-12T18:06:27.029Z,100882.80
2023-01-12T18:09:28.284Z,100875.25
2023-01-12T18:12:32.270Z,100872.95
2023-01-12T18:15:33.312Z,100878.41
2023-01-12T18:18:34.579Z,100884.73
2023-01-12T18:21:39.409Z,100892.67
2023-01-12T18:24:43.311Z,100886.24
2023-01-12T18:27:47.339Z,100880.95
2023-01-12T18:30:48.407Z,100884.17
2023-01-12T18:33:50.391Z,100890.78
2023-01-12T18:36:53.535Z,100904.24
2023-01-12T18:39:54.342Z,100891.52
2023-01-12T18:42:58.353Z,100886.28
2023-01-12T18:46:01.397Z,100885.76
2023-01-12T18:49:03.984Z,100873.82
2023-01-12T18:52:23.582Z,100880.30
2023-01-12T18:55:26.974Z,100876.62
2023-01-12T18:58:37.410Z,100886.67
2023-01-12T19:01:38.479Z,100880.98
2023-01-12T19:05:01.602Z,100888.79
2023-01-12T22:06:58.452Z,100886.83
2023-01-12T22:10:23.530Z,100887.89
2023-01-12T22:13:27.469Z,100878.17
2023-01-12T22:16:31.551Z,100867.66
2023-01-12T22:19:33.419Z,100864.96
2023-01-12T22:22:33.311Z,100853.04
2023-01-12T22:25:34.320Z,100853.44
2023-01-12T22:28:35.288Z,100842.39
2023-01-12T22:31:37.323Z,100839.70
2023-01-12T22:34:40.509Z,100836.11
2023-01-12T22:37:47.496Z,100838.11
2023-01-12T22:40:47.310Z,100848.69
2023-01-12T22:43:47.327Z,100857.21
2023-01-12T22:46:47.302Z,100860.04
2023-01-12T22:49:47.314Z,100854.20
2023-01-12T22:52:47.278Z,100852.59
2023-01-12T22:55:48.534Z,100853.91
2023-01-12T22:58:51.452Z,100853.38
2023-01-12T23:01:51.717Z,100860.85
2023-01-12T23:04:53.349Z,100857.13
2023-01-12T23:07:53.344Z,100851.02
2023-01-12T23:10:54.378Z,100846.52
2023-01-12T23:13:55.355Z,100851.27
2023-01-12T23:16:55.531Z,100844.23
2023-01-12T23:19:55.428Z,100855.73
2023-01-12T23:22:55.631Z,100843.52
2023-01-12T23:26:00.355Z,100839.17
2023-01-12T23:29:03.580Z,100831.27
2023-01-12T23:32:04.765Z,100833.97
2023-01-12T23:35:05.374Z,100833.11
2023-01-12T23:38:05.356Z,100834.77
2023-01-12T23:41:06.393Z,100827.66
2023-01-12T23:44:15.308Z,100827.60
2023-01-12T23:47:34.019Z,100835.33
2023-01-12T23:50:41.411Z,100830.02
2023-01-12T23:53:41.527Z,100831.17
2023-01-12T23:56:42.422Z,100826.94
2023-01-12T23:59:42.474Z,100823.64
